createdAt,value
2023-04-28T00:00:55.640Z,72.6516
2023-04-28T00:01:57.347Z,72.6827
2023-04-28T00:02:58.967Z,72.6611
2023-04-28T00:04:00.590Z,72.8895
2023-04-28T00:05:09.705Z,72.9874
2023-04-28T00:06:03.996Z,72.7741
2023-04-28T00:07:05.460Z,72.2183
2023-04-28T00:09:09.912Z,72.1998
2023-04-28T00:11:15.257Z,71.4123
2023-04-28T00:12:16.710Z,71.4602
2023-04-28T00:13:18.159Z,71.4920
2023-04-28T00:14:19.983Z,71.7615
2023-04-28T00:15:20.894Z,71.1908
2023-04-28T00:16:22.437Z,70.9133
2023-04-28T00:17:23.960Z,71.7880
2023-04-28T00:18:25.516Z,71.5169
2023-04-28T00:19:26.855Z,71.6101
2023-04-28T00:20:28.344Z,71.7039
2023-04-28T00:21:29.775Z,71.8566
2023-04-28T00:22:31.250Z,71.7595
2023-04-28T00:23:32.700Z,71.8087
2023-04-28T00:24:34.168Z,71.9186
2023-04-28T00:25:35.650Z,72.0546
2023-04-28T00:26:37.109Z,72.4138
2023-04-28T00:27:37.635Z,72.4095
2023-04-28T00:28:39.100Z,71.9913
2023-04-28T00:29:40.567Z,71.7670
2023-04-28T00:30:42.019Z,72.0211
2023-04-28T00:31:44.286Z,71.9652
2023-04-28T00:32:49.761Z,72.1651
2023-04-28T00:33:51.196Z,72.4564
2023-04-28T00:35:55.660Z,71.9329
2023-04-28T00:36:57.132Z,71.7431
2023-04-28T00:37:58.570Z,71.7774
2023-04-28T00:39:00.057Z,71.7867
2023-04-28T00:40:01.540Z,71.8896
2023-04-28T00:41:03.316Z,71.7135
2023-04-28T00:42:04.800Z,71.5866
2023-04-28T00:43:06.169Z,72.1600
2023-04-28T00:44:15.375Z,72.1371
2023-04-28T00:45:16.959Z,71.7881
2023-04-28T00:46:18.573Z,72.0991
2023-04-28T00:47:20.502Z,72.1329
2023-04-28T00:48:25.405Z,72.0686
2023-04-28T00:50:30.422Z,72.0908
2023-04-28T00:51:31.917Z,72.0668
2023-04-28T00:52:38.354Z,72.3539
2023-04-28T00:53:46.881Z,72.2072
2023-04-28T00:55:44.474Z,72.1002
2023-04-28T00:56:45.817Z,72.1446
2023-04-28T00:57:47.263Z,72.4518
2023-04-28T00:59:48.849Z,72.1511
2023-04-28T01:00:50.345Z,72.2438
2023-04-28T01:01:51.766Z,72.1393
2023-04-28T01:02:53.482Z,72.4517
2023-04-28T01:03:55.103Z,72.4569
2023-04-28T01:04:56.618Z,72.5834
2023-04-28T01:05:58.074Z,72.4811
2023-04-28T01:06:59.554Z,72.2420
2023-04-28T01:08:01.038Z,72.0880
2023-04-28T01:09:03.121Z,71.9764
2023-04-28T01:10:04.558Z,71.7703
2023-04-28T01:11:06.001Z,71.4054
2023-04-28T01:12:07.404Z,71.8036
2023-04-28T01:13:09.031Z,71.9105
2023-04-28T01:14:10.527Z,72.0877
2023-04-28T01:15:11.992Z,71.7455
2023-04-28T01:16:13.506Z,72.0137
2023-04-28T01:17:35.341Z,71.7850
2023-04-28T01:18:29.627Z,71.2305
2023-04-28T01:19:31.091Z,71.2770
2023-04-28T01:20:34.520Z,71.1299
2023-04-28T01:21:36.309Z,70.8915
2023-04-28T01:22:38.012Z,70.9597
2023-04-28T01:23:39.570Z,71.3133
2023-04-28T01:24:41.023Z,71.7604
2023-04-28T01:25:42.492Z,72.5897
2023-04-28T01:26:43.819Z,73.2496
2023-04-28T01:27:45.262Z,74.2286
2023-04-28T01:28:46.748Z,74.9329
2023-04-28T01:29:48.437Z,75.7408
2023-04-28T01:30:49.945Z,75.6362
2023-04-28T01:31:51.460Z,75.8571
2023-04-28T01:32:52.915Z,75.8332
2023-04-28T01:33:54.406Z,76.4101
2023-04-28T01:34:56.226Z,76.2078
2023-04-28T01:35:57.666Z,77.2097
2023-04-28T01:36:58.992Z,77.5855
2023-04-28T01:38:00.437Z,77.3951
2023-04-28T01:39:01.921Z,75.6685
2023-04-28T01:40:13.021Z,76.0334
2023-04-28T01:41:14.474Z,75.4814
2023-04-28T01:42:15.960Z,75.4223
2023-04-28T01:43:17.406Z,76.5093
2023-04-28T01:44:19.785Z,75.2329
2023-04-28T01:45:21.479Z,75.7689
2023-04-28T01:46:22.949Z,75.7005
2023-04-28T01:47:24.395Z,77.4359
2023-04-28T01:48:26.198Z,78.3029
2023-04-28T01:49:27.679Z,80.2380
2023-04-28T01:50:29.139Z,80.5830
2023-04-28T01:51:30.572Z,81.0390
2023-04-28T01:52:32.034Z,81.2850
2023-04-28T01:53:33.543Z,82.9275
2023-04-28T01:54:34.986Z,84.6766
2023-04-28T01:55:36.444Z,85.1108
2023-04-28T01:56:37.933Z,85.0908
2023-04-28T01:57:39.570Z,84.9893
2023-04-28T01:58:41.060Z,86.0289
2023-04-28T01:59:42.531Z,85.8054
2023-04-28T02:00:43.977Z,82.1462
2023-04-28T02:01:45.513Z,82.3249
2023-04-28T02:02:47.026Z,81.3054
2023-04-28T02:03:48.763Z,78.7505
2023-04-28T02:04:50.735Z,78.5381
2023-04-28T02:05:52.041Z,78.5259
2023-04-28T02:06:53.498Z,78.7040
2023-04-28T02:07:54.975Z,80.0909
2023-04-28T02:08:56.430Z,80.5837
2023-04-28T02:09:58.204Z,80.6360
2023-04-28T02:10:59.673Z,81.0467
2023-04-28T02:12:01.144Z,81.3694
2023-04-28T02:13:02.599Z,81.1562
2023-04-28T02:14:04.079Z,80.3342
2023-04-28T02:15:05.704Z,80.5842
2023-04-28T02:16:07.210Z,80.3886
2023-04-28T02:17:08.691Z,79.8690
2023-04-28T02:18:10.157Z,79.5836
2023-04-28T02:19:11.651Z,79.9844
2023-04-28T02:20:13.092Z,80.2926
2023-04-28T02:21:14.588Z,78.9610
2023-04-28T02:22:16.099Z,76.9656
2023-04-28T02:23:17.550Z,76.1213
2023-04-28T02:24:19.062Z,76.2364
2023-04-28T02:25:20.595Z,76.2324
2023-04-28T02:26:22.030Z,77.3094
2023-04-28T02:27:23.501Z,76.7562
2023-04-28T02:28:24.947Z,77.4491
2023-04-28T02:29:26.483Z,78.2076
2023-04-28T02:30:27.965Z,77.4440
2023-04-28T02:31:29.488Z,78.1234
2023-04-28T02:32:31.058Z,78.7658
2023-04-28T02:33:32.535Z,78.8756
2023-04-28T02:34:34.033Z,80.1347
2023-04-28T02:35:35.499Z,79.8424
2023-04-28T02:36:36.967Z,79.8882
2023-04-28T02:37:38.655Z,80.4504
2023-04-28T02:38:40.123Z,80.7786
2023-04-28T02:39:41.850Z,81.4436
2023-04-28T02:40:43.293Z,80.4040
2023-04-28T02:41:44.755Z,78.8592
2023-04-28T02:42:46.215Z,78.7990
2023-04-28T02:43:47.701Z,78.7471
2023-04-28T02:44:49.420Z,80.5635
2023-04-28T02:45:50.861Z,80.8091
2023-04-28T02:46:52.329Z,83.2995
2023-04-28T02:47:53.898Z,84.6667
2023-04-28T02:48:55.336Z,84.1560
2023-04-28T02:49:56.791Z,81.6100
2023-04-28T02:50:58.274Z,81.8818
2023-04-28T02:51:59.700Z,83.6063
2023-04-28T02:53:01.198Z,82.5048
2023-04-28T02:54:02.681Z,80.8182
2023-04-28T02:55:04.230Z,81.3129
2023-04-28T02:56:05.784Z,82.0885
2023-04-28T02:57:07.270Z,83.2950
2023-04-28T02:58:08.780Z,83.9997
2023-04-28T02:59:10.308Z,85.4109
2023-04-28T03:00:13.368Z,86.2274
2023-04-28T03:01:14.924Z,85.7220
2023-04-28T03:02:16.436Z,85.1568
2023-04-28T03:03:18.411Z,85.2342
2023-04-28T03:04:20.364Z,85.8920
2023-04-28T03:05:22.010Z,85.9768
2023-04-28T03:06:23.513Z,86.6370
2023-04-28T03:07:25.024Z,87.8665
2023-04-28T03:08:26.521Z,88.7291
2023-04-28T03:09:28.031Z,88.8665
2023-04-28T03:10:29.518Z,87.6990
2023-04-28T03:11:31.065Z,86.8375
2023-04-28T03:12:32.705Z,88.5996
2023-04-28T03:13:34.244Z,89.4312
2023-04-28T03:14:35.738Z,88.6357
2023-04-28T03:15:37.291Z,89.1284
2023-04-28T03:16:38.850Z,88.8065
2023-04-28T03:17:40.359Z,89.0666
2023-04-28T03:18:41.837Z,90.3097
2023-04-28T03:19:43.331Z,90.2320
2023-04-28T03:20:46.528Z,90.7073
2023-04-28T03:21:48.020Z,90.5597
2023-04-28T03:22:49.590Z,91.4032
2023-04-28T03:23:51.014Z,91.9349
2023-04-28T03:24:52.525Z,91.8505
2023-04-28T03:25:53.994Z,91.4348
2023-04-28T03:26:55.518Z,90.5897
2023-04-28T03:27:57.017Z,90.8961
2023-04-28T03:28:58.504Z,91.1317
2023-04-28T03:30:00.024Z,91.1604
2023-04-28T03:31:01.530Z,91.2726
2023-04-28T03:32:03.088Z,90.8330
2023-04-28T03:33:04.865Z,91.4029
2023-04-28T03:34:06.346Z,91.8412
2023-04-28T03:35:07.848Z,91.9536
2023-04-28T03:36:09.362Z,91.7829
2023-04-28T03:37:10.845Z,92.4893
2023-04-28T03:38:12.372Z,93.4348
2023-04-28T03:39:13.887Z,93.0854
2023-04-28T03:40:15.389Z,92.9754
2023-04-28T03:41:16.898Z,93.3809
2023-04-28T03:42:18.411Z,93.1215
2023-04-28T03:43:19.896Z,93.2474
2023-04-28T03:44:21.393Z,93.1370
2023-04-28T03:45:22.908Z,93.5862
2023-04-28T03:46:24.418Z,93.3115
2023-04-28T03:47:25.925Z,92.4308
2023-04-28T03:48:27.438Z,92.3081
2023-04-28T03:49:28.920Z,92.5837
2023-04-28T03:50:30.406Z,92.5496
2023-04-28T03:51:31.948Z,92.4573
2023-04-28T03:52:33.430Z,92.5114
2023-04-28T03:53:34.963Z,92.7116
2023-04-28T03:54:36.428Z,92.6992
2023-04-28T03:55:37.928Z,92.2507
2023-04-28T03:56:39.445Z,92.2176
2023-04-28T03:57:41.236Z,92.5728
2023-04-28T03:58:42.708Z,92.7240
2023-04-28T03:59:44.200Z,92.4892
2023-04-28T04:00:45.719Z,92.7868
2023-04-28T04:01:47.200Z,92.5676
2023-04-28T04:02:48.966Z,92.8253
2023-04-28T04:03:50.644Z,93.1483
2023-04-28T04:04:52.377Z,93.0935
2023-04-28T04:05:54.024Z,93.0083
2023-04-28T04:06:55.617Z,93.0116
2023-04-28T04:07:57.366Z,93.1530
2023-04-28T04:08:58.894Z,93.2350
2023-04-28T04:10:02.536Z,93.9408
2023-04-28T04:11:01.877Z,94.4339
2023-04-28T04:12:03.341Z,94.2439
2023-04-28T04:13:04.839Z,94.5527
2023-04-28T04:14:06.374Z,94.2318
2023-04-28T04:15:07.853Z,94.3923
2023-04-28T04:16:09.434Z,93.9863
2023-04-28T04:17:10.982Z,93.7779
2023-04-28T04:18:12.703Z,93.5405
2023-04-28T04:19:14.262Z,93.3720
2023-04-28T04:20:15.755Z,93.7221
2023-04-28T04:21:17.242Z,93.5655
2023-04-28T04:22:18.751Z,93.8299
2023-04-28T04:23:21.793Z,94.1609
2023-04-28T04:24:23.298Z,94.1849
2023-04-28T04:25:24.800Z,92.8835
2023-04-28T04:26:26.381Z,91.1726
2023-04-28T04:27:27.887Z,92.2532
2023-04-28T04:28:29.404Z,93.9476
2023-04-28T04:29:30.926Z,93.9933
2023-04-28T04:30:32.462Z,94.1257
2023-04-28T04:31:33.967Z,93.6495
2023-04-28T04:32:35.533Z,93.8437
2023-04-28T04:33:37.052Z,93.5453
2023-04-28T04:34:38.580Z,92.6654
2023-04-28T04:35:40.115Z,93.2964
2023-04-28T04:36:41.618Z,93.4953
2023-04-28T04:37:43.179Z,92.8385
2023-04-28T04:38:44.710Z,93.2832
2023-04-28T04:39:46.733Z,92.4717
2023-04-28T04:40:48.244Z,91.9675
2023-04-28T04:41:49.778Z,92.5341
2023-04-28T04:42:51.260Z,93.8309
2023-04-28T04:43:52.871Z,93.3118
2023-04-28T04:44:54.401Z,93.3219
2023-04-28T04:45:56.184Z,91.6730
2023-04-28T04:46:57.790Z,93.2094
2023-04-28T04:47:59.355Z,93.1753
2023-04-28T04:49:00.891Z,92.8912
2023-04-28T04:50:02.433Z,93.4874
2023-04-28T04:51:03.948Z,93.5068
2023-04-28T04:52:05.496Z,93.8600
2023-04-28T04:53:09.951Z,93.8419
2023-04-28T04:54:07.330Z,93.7862
2023-04-28T04:55:08.887Z,92.2506
2023-04-28T04:56:10.536Z,92.5161
2023-04-28T04:57:12.084Z,92.6685
2023-04-28T04:58:13.600Z,92.1939
2023-04-28T04:59:15.176Z,92.0633
2023-04-28T05:00:16.698Z,92.8410
2023-04-28T05:01:18.268Z,93.6218
2023-04-28T05:02:20.355Z,93.1669
2023-04-28T05:03:22.087Z,92.9284
2023-04-28T05:04:23.798Z,92.6607
2023-04-28T05:05:25.463Z,92.7558
2023-04-28T05:06:26.972Z,92.8185
2023-04-28T05:07:28.486Z,92.5127
2023-04-28T05:08:29.967Z,92.0212
2023-04-28T05:09:31.524Z,92.8936
2023-04-28T05:10:33.103Z,92.8529
2023-04-28T05:11:34.621Z,93.0930
2023-04-28T05:12:36.147Z,93.0781
2023-04-28T05:13:37.675Z,93.4420
2023-04-28T05:14:39.175Z,94.1440
2023-04-28T05:15:40.688Z,94.3195
2023-04-28T05:16:42.230Z,90.4072
2023-04-28T05:17:43.822Z,91.1733
2023-04-28T05:18:45.346Z,92.8275
2023-04-28T05:19:46.864Z,92.9007
2023-04-28T05:20:48.622Z,93.8915
2023-04-28T05:21:50.136Z,94.4980
2023-04-28T05:22:51.674Z,94.6157
2023-04-28T05:23:53.168Z,94.7391
2023-04-28T05:24:54.709Z,94.9648
2023-04-28T05:25:56.263Z,95.2679
2023-04-28T05:26:57.772Z,95.5168
2023-04-28T05:27:59.275Z,95.6619
2023-04-28T05:29:00.907Z,95.5907
2023-04-28T05:30:02.428Z,95.2218
2023-04-28T05:31:03.950Z,95.2783
2023-04-28T05:32:05.553Z,95.0128
2023-04-28T05:33:07.153Z,95.3271
2023-04-28T05:34:08.655Z,95.1061
2023-04-28T05:35:10.177Z,95.3387
2023-04-28T05:36:11.735Z,95.7813
2023-04-28T05:37:13.294Z,95.9630
2023-04-28T05:38:14.790Z,95.6662
2023-04-28T05:39:16.331Z,95.7974
2023-04-28T05:40:17.839Z,96.0862
2023-04-28T05:41:19.369Z,95.9228
2023-04-28T05:42:20.873Z,95.5426
2023-04-28T05:43:22.733Z,93.7101
2023-04-28T05:44:24.233Z,93.5329
2023-04-28T05:45:25.749Z,94.3442
2023-04-28T05:46:31.092Z,94.9437
2023-04-28T05:47:29.202Z,95.1584
2023-04-28T05:48:31.017Z,95.1275
2023-04-28T05:49:32.526Z,95.4775
2023-04-28T05:50:34.111Z,95.8383
2023-04-28T05:51:35.609Z,95.7855
2023-04-28T05:52:37.448Z,95.8007
2023-04-28T05:53:38.938Z,95.7452
2023-04-28T05:54:40.468Z,95.8552
2023-04-28T05:55:41.949Z,95.9941
2023-04-28T05:56:43.461Z,95.9939
2023-04-28T05:57:52.371Z,96.7058
2023-04-28T05:58:45.209Z,97.0470
2023-04-28T05:59:46.716Z,97.2805
2023-04-28T06:00:48.303Z,97.4481
2023-04-28T06:01:49.814Z,97.5244
2023-04-28T06:02:51.454Z,97.5939
2023-04-28T06:03:53.130Z,97.6721
2023-04-28T06:04:55.010Z,97.7499
2023-04-28T06:05:56.629Z,97.8165
2023-04-28T06:06:58.195Z,97.8754
2023-04-28T06:07:59.730Z,97.7211
2023-04-28T06:09:01.276Z,97.5965
2023-04-28T06:10:02.733Z,97.6042
2023-04-28T06:11:04.292Z,97.5646
2023-04-28T06:12:05.815Z,97.3237
2023-04-28T06:13:07.353Z,97.2284
2023-04-28T06:14:08.846Z,97.4595
2023-04-28T06:15:10.345Z,97.5366
2023-04-28T06:16:12.063Z,97.6523
2023-04-28T06:17:13.593Z,97.6384
2023-04-28T06:18:15.122Z,97.6693
2023-04-28T06:19:16.637Z,97.7769
2023-04-28T06:20:18.171Z,97.8004
2023-04-28T06:21:19.966Z,97.0465
2023-04-28T06:22:21.481Z,96.3756
2023-04-28T06:23:22.982Z,96.4037
2023-04-28T06:24:24.483Z,96.6764
2023-04-28T06:25:26.039Z,96.3522
2023-04-28T06:26:27.545Z,96.2365
2023-04-28T06:27:29.076Z,96.1198
2023-04-28T06:28:30.582Z,95.8419
2023-04-28T06:29:32.160Z,96.0216
2023-04-28T06:30:33.686Z,96.3867
2023-04-28T06:31:35.211Z,94.9470
2023-04-28T06:32:36.779Z,96.1164
2023-04-28T06:33:38.297Z,95.7335
2023-04-28T06:34:39.809Z,94.7093
2023-04-28T06:35:41.346Z,95.0122
2023-04-28T06:36:42.936Z,95.1939
2023-04-28T06:37:44.442Z,95.3432
2023-04-28T06:38:46.014Z,95.7342
2023-04-28T06:39:47.522Z,96.0041
2023-04-28T06:40:49.067Z,95.8368
2023-04-28T06:41:50.576Z,95.8587
2023-04-28T06:42:52.093Z,96.1086
2023-04-28T06:43:53.603Z,95.9666
2023-04-28T06:44:55.106Z,95.9725
2023-04-28T06:45:56.624Z,95.8146
2023-04-28T06:46:58.263Z,96.0159
2023-04-28T06:47:59.969Z,95.7531
2023-04-28T06:49:01.538Z,95.3371
2023-04-28T06:50:03.056Z,95.3361
2023-04-28T06:51:04.568Z,95.3964
2023-04-28T06:52:06.080Z,95.7137
2023-04-28T06:53:07.629Z,94.8164
2023-04-28T06:54:09.101Z,94.7249
2023-04-28T06:55:10.812Z,94.8871
2023-04-28T06:56:12.328Z,94.6461
2023-04-28T06:57:13.864Z,94.7306
2023-04-28T06:58:15.378Z,95.0542
2023-04-28T06:59:16.896Z,95.2279
2023-04-28T07:00:18.459Z,95.2321
2023-04-28T07:01:20.025Z,94.8635
2023-04-28T07:02:21.662Z,94.6948
2023-04-28T07:03:23.252Z,94.2999
2023-04-28T07:04:25.490Z,94.6628
2023-04-28T07:05:27.032Z,94.8055
2023-04-28T07:06:28.512Z,94.3260
2023-04-28T07:07:30.086Z,94.4069
2023-04-28T07:08:31.857Z,94.6160
2023-04-28T07:09:33.367Z,94.5590
2023-04-28T07:10:34.868Z,94.6679
2023-04-28T07:11:36.373Z,94.1726
2023-04-28T07:12:37.902Z,93.8565
2023-04-28T07:13:39.458Z,94.0066
2023-04-28T07:14:40.944Z,94.1384
2023-04-28T07:15:42.486Z,94.2547
2023-04-28T07:16:44.006Z,94.4411
2023-04-28T07:17:45.736Z,94.3333
2023-04-28T07:18:47.246Z,94.2811
2023-04-28T07:19:48.774Z,94.1641
2023-04-28T07:20:50.275Z,93.9648
2023-04-28T07:21:51.776Z,93.9667
2023-04-28T07:22:53.317Z,94.1541
2023-04-28T07:23:54.802Z,93.9576
2023-04-28T07:24:56.350Z,94.4640
2023-04-28T07:25:57.860Z,94.4146
2023-04-28T07:26:59.370Z,94.3741
2023-04-28T07:28:00.899Z,93.9198
2023-04-28T07:29:02.491Z,93.7063
2023-04-28T07:30:11.950Z,93.2735
2023-04-28T07:31:04.232Z,93.5101
2023-04-28T07:32:07.511Z,93.7574
2023-04-28T07:33:09.284Z,93.8130
2023-04-28T07:34:10.812Z,93.3588
2023-04-28T07:35:12.300Z,93.7505
2023-04-28T07:36:12.316Z,93.9125
2023-04-28T07:37:13.809Z,93.8089
2023-04-28T07:38:15.342Z,93.7812
2023-04-28T07:39:16.887Z,93.9753
2023-04-28T07:40:18.395Z,93.5617
2023-04-28T07:41:19.904Z,93.5444
2023-04-28T07:42:21.424Z,93.8790
2023-04-28T07:43:22.952Z,93.7103
2023-04-28T07:44:24.440Z,93.6675
2023-04-28T07:45:25.973Z,94.0878
2023-04-28T07:46:27.498Z,94.0928
2023-04-28T07:47:29.067Z,94.4020
2023-04-28T07:48:30.618Z,94.2375
2023-04-28T07:49:32.141Z,94.1975
2023-04-28T07:50:34.352Z,94.0395
2023-04-28T07:51:35.844Z,93.8687
2023-04-28T07:52:37.359Z,94.2684
2023-04-28T07:53:38.898Z,94.3818
2023-04-28T07:54:40.445Z,94.2370
2023-04-28T07:55:41.991Z,94.7616
2023-04-28T07:56:43.513Z,94.9126
2023-04-28T07:57:45.086Z,94.9854
2023-04-28T07:58:46.633Z,94.7077
2023-04-28T07:59:48.128Z,94.7432
2023-04-28T08:00:49.661Z,95.1684
2023-04-28T08:01:51.189Z,94.8487
2023-04-28T08:02:52.944Z,95.0459
2023-04-28T08:03:54.734Z,95.0711
2023-04-28T08:04:56.706Z,94.6417
2023-04-28T08:07:01.424Z,94.4821
2023-04-28T08:08:02.939Z,95.1648
2023-04-28T08:09:04.458Z,95.1418
2023-04-28T08:10:05.962Z,95.1403
2023-04-28T08:11:07.468Z,94.9886
2023-04-28T08:12:08.980Z,95.4130
2023-04-28T08:13:10.534Z,95.3418
2023-04-28T08:14:12.045Z,95.2342
2023-04-28T08:15:13.532Z,95.2966
2023-04-28T08:16:15.058Z,95.3752
2023-04-28T08:17:16.612Z,95.2721
2023-04-28T08:18:18.153Z,95.1441
2023-04-28T08:19:19.662Z,95.0530
2023-04-28T08:20:23.862Z,95.5757
2023-04-28T08:21:22.395Z,95.3172
2023-04-28T08:22:23.919Z,95.6438
2023-04-28T08:23:25.463Z,95.7762
2023-04-28T08:24:26.990Z,95.7922
2023-04-28T08:25:28.522Z,95.8370
2023-04-28T08:26:30.003Z,95.4516
2023-04-28T08:27:31.557Z,95.5156
2023-04-28T08:28:33.039Z,95.6431
2023-04-28T08:29:34.520Z,95.4670
2023-04-28T08:30:36.087Z,95.4729
2023-04-28T08:31:37.641Z,95.5936
2023-04-28T08:32:39.139Z,95.0346
2023-04-28T08:33:40.680Z,94.9342
2023-04-28T08:34:42.209Z,95.1827
2023-04-28T08:35:44.049Z,95.1828
2023-04-28T08:36:45.553Z,95.4729
2023-04-28T08:37:47.085Z,95.5824
2023-04-28T08:38:48.575Z,95.7145
2023-04-28T08:39:50.113Z,95.6121
2023-04-28T08:40:51.902Z,95.3525
2023-04-28T08:41:53.389Z,95.4875
2023-04-28T08:42:54.891Z,95.2334
2023-04-28T08:43:56.389Z,94.9424
2023-04-28T08:44:57.906Z,95.0432
2023-04-28T08:45:59.435Z,94.8259
2023-04-28T08:47:00.968Z,94.8411
2023-04-28T08:48:02.524Z,94.0750
2023-04-28T08:49:04.001Z,93.0405
2023-04-28T08:50:05.519Z,92.9859
2023-04-28T08:51:07.359Z,92.9611
2023-04-28T08:52:08.907Z,92.9150
2023-04-28T08:53:10.967Z,93.0219
2023-04-28T08:54:25.427Z,93.5900
2023-04-28T08:55:12.709Z,93.9524
2023-04-28T08:56:14.234Z,93.6355
2023-04-28T08:57:15.761Z,93.6479
2023-04-28T08:58:17.481Z,93.3888
2023-04-28T08:59:19.029Z,93.5470
2023-04-28T09:00:20.522Z,93.9487
2023-04-28T09:01:22.071Z,94.2635
2023-04-28T09:02:23.686Z,94.1275
2023-04-28T09:03:25.475Z,93.9169
2023-04-28T09:04:27.700Z,94.8305
2023-04-28T09:05:29.687Z,95.0762
2023-04-28T09:06:31.504Z,95.4554
2023-04-28T09:07:32.977Z,95.4983
2023-04-28T09:08:34.545Z,95.7515
2023-04-28T09:09:39.049Z,95.4836
2023-04-28T09:10:37.255Z,95.6988
2023-04-28T09:11:38.744Z,95.9228
2023-04-28T09:12:40.229Z,95.8921
2023-04-28T09:13:41.766Z,95.6304
2023-04-28T09:14:43.268Z,95.5838
2023-04-28T09:15:44.819Z,95.6443
2023-04-28T09:16:46.442Z,95.1048
2023-04-28T09:17:48.058Z,94.8300
2023-04-28T09:18:50.017Z,95.2614
2023-04-28T09:19:51.507Z,94.6046
2023-04-28T09:20:53.246Z,95.1106
2023-04-28T09:21:54.892Z,95.3069
2023-04-28T09:22:56.450Z,95.6918
2023-04-28T09:23:58.101Z,95.2957
2023-04-28T09:24:59.619Z,95.6167
2023-04-28T09:26:01.196Z,95.4471
2023-04-28T09:27:02.715Z,95.3343
2023-04-28T09:28:04.274Z,94.9928
2023-04-28T09:29:05.801Z,94.9062
2023-04-28T09:30:07.361Z,95.0853
2023-04-28T09:31:08.946Z,94.9628
2023-04-28T09:32:10.562Z,95.1812
2023-04-28T09:33:12.277Z,95.3935
2023-04-28T09:34:14.052Z,95.8683
2023-04-28T09:35:15.717Z,95.5947
2023-04-28T09:36:17.286Z,95.5886
2023-04-28T09:37:18.867Z,95.6955
2023-04-28T09:38:20.367Z,96.0062
2023-04-28T09:39:21.957Z,96.2386
2023-04-28T09:40:23.463Z,95.4691
2023-04-28T09:41:25.036Z,95.4048
2023-04-28T09:42:26.563Z,95.5698
2023-04-28T09:43:28.101Z,95.8029
2023-04-28T09:44:29.640Z,96.1704
2023-04-28T09:45:31.160Z,95.9873
2023-04-28T09:46:32.881Z,95.5738
2023-04-28T09:47:34.443Z,95.5415
2023-04-28T09:48:35.973Z,95.9027
2023-04-28T09:49:37.487Z,96.0960
2023-04-28T09:50:39.080Z,96.1066
2023-04-28T09:51:40.932Z,96.1194
2023-04-28T09:52:42.484Z,95.7161
2023-04-28T09:53:44.065Z,95.8151
2023-04-28T09:54:45.593Z,96.8555
2023-04-28T09:55:47.193Z,97.3657
2023-04-28T09:56:48.697Z,97.5013
2023-04-28T09:57:50.394Z,97.7085
2023-04-28T09:58:51.895Z,97.7372
2023-04-28T09:59:53.412Z,97.7215
2023-04-28T10:00:54.991Z,97.7401
2023-04-28T10:01:56.516Z,97.7673
2023-04-28T10:02:58.152Z,97.6065
2023-04-28T10:04:00.122Z,97.6362
2023-04-28T10:05:01.971Z,97.6144
2023-04-28T10:06:03.807Z,97.8350
2023-04-28T10:07:05.352Z,98.0229
2023-04-28T10:08:06.876Z,97.8637
2023-04-28T10:09:08.425Z,97.6079
2023-04-28T10:10:09.933Z,97.5215
2023-04-28T10:11:11.528Z,97.6446
2023-04-28T10:12:13.080Z,97.4464
2023-04-28T10:13:14.680Z,97.1706
2023-04-28T10:14:16.224Z,96.7712
2023-04-28T10:15:17.749Z,96.3998
2023-04-28T10:16:19.366Z,96.1338
2023-04-28T10:17:20.957Z,96.5321
2023-04-28T10:18:22.446Z,96.8596
2023-04-28T10:19:24.015Z,96.3845
2023-04-28T10:20:25.611Z,95.8560
2023-04-28T10:21:27.266Z,95.6394
2023-04-28T10:22:28.769Z,96.0327
2023-04-28T10:23:30.312Z,95.6770
2023-04-28T10:24:31.820Z,95.8221
2023-04-28T10:25:33.340Z,95.3113
2023-04-28T10:26:34.938Z,95.3237
2023-04-28T10:27:36.463Z,95.3044
2023-04-28T10:28:38.027Z,95.1229
2023-04-28T10:29:39.596Z,95.7471
2023-04-28T10:30:41.142Z,96.0110
2023-04-28T10:31:42.769Z,96.2459
2023-04-28T10:32:44.439Z,96.4139
2023-04-28T10:33:45.933Z,96.4417
2023-04-28T10:34:47.530Z,95.9039
2023-04-28T10:35:49.063Z,95.3319
2023-04-28T10:36:50.651Z,95.3191
2023-04-28T10:37:52.157Z,94.7264
2023-04-28T10:38:53.958Z,94.8224
2023-04-28T10:39:55.497Z,95.2437
2023-04-28T10:40:57.075Z,95.1457
2023-04-28T10:41:58.657Z,95.7664
2023-04-28T10:43:00.235Z,95.5161
2023-04-28T10:44:01.798Z,95.4267
2023-04-28T10:45:03.344Z,94.9483
2023-04-28T10:46:04.953Z,94.7829
2023-04-28T10:47:06.489Z,94.1711
2023-04-28T10:48:08.070Z,93.9868
2023-04-28T10:49:09.583Z,94.1624
2023-04-28T10:50:11.143Z,93.8192
2023-04-28T10:51:12.692Z,94.2617
2023-04-28T10:52:14.224Z,93.7951
2023-04-28T10:53:15.763Z,93.7158
2023-04-28T10:54:17.302Z,93.3251
2023-04-28T10:55:22.008Z,92.4450
2023-04-28T10:56:20.422Z,92.7032
2023-04-28T10:57:21.959Z,93.1996
2023-04-28T10:58:23.506Z,93.3397
2023-04-28T10:59:25.355Z,93.5831
2023-04-28T11:00:26.893Z,93.1134
2023-04-28T11:01:28.494Z,93.4476
2023-04-28T11:02:30.126Z,92.6492
2023-04-28T11:03:32.265Z,92.0192
2023-04-28T11:04:34.166Z,91.8997
2023-04-28T11:05:35.756Z,92.0661
2023-04-28T11:06:37.337Z,91.4236
2023-04-28T11:07:38.871Z,92.1911
2023-04-28T11:08:40.370Z,92.3977
2023-04-28T11:09:41.917Z,90.9266
2023-04-28T11:10:43.808Z,90.9011
2023-04-28T11:11:45.346Z,90.8795
2023-04-28T11:12:46.909Z,91.2485
2023-04-28T11:13:48.463Z,91.2084
2023-04-28T11:14:49.992Z,91.4170
2023-04-28T11:15:51.535Z,92.2630
2023-04-28T11:16:53.052Z,93.0249
2023-04-28T11:17:54.623Z,92.7008
2023-04-28T11:18:56.443Z,92.0413
2023-04-28T11:19:57.969Z,91.4532
2023-04-28T11:20:59.490Z,91.2699
2023-04-28T11:22:01.063Z,90.2190
2023-04-28T11:23:02.584Z,90.2489
2023-04-28T11:24:04.143Z,90.0511
2023-04-28T11:25:05.688Z,90.3060
2023-04-28T11:26:07.228Z,89.4179
2023-04-28T11:27:08.824Z,88.6514
2023-04-28T11:28:10.345Z,89.4416
2023-04-28T11:29:11.881Z,89.4077
2023-04-28T11:30:13.397Z,90.3209
2023-04-28T11:31:14.993Z,90.1127
2023-04-28T11:32:16.752Z,90.0707
2023-04-28T11:33:18.431Z,90.5805
2023-04-28T11:34:19.948Z,91.3313
2023-04-28T11:35:21.485Z,91.9854
2023-04-28T11:36:23.044Z,91.6748
2023-04-28T11:37:24.580Z,91.8006
2023-04-28T11:40:29.998Z,91.5622
2023-04-28T11:41:31.544Z,90.6696
2023-04-28T11:42:33.081Z,91.0643
2023-04-28T11:43:46.539Z,90.5839
2023-04-28T11:44:35.091Z,90.2628
2023-04-28T11:45:36.674Z,89.4781
2023-04-28T11:46:38.461Z,88.3235
2023-04-28T11:47:40.108Z,87.9377
2023-04-28T11:48:41.642Z,87.0340
2023-04-28T11:49:43.172Z,85.4740
2023-04-28T11:50:44.709Z,86.8651
2023-04-28T11:51:46.278Z,88.0691
2023-04-28T11:52:47.812Z,88.0925
2023-04-28T11:53:49.392Z,87.7141
2023-04-28T11:54:50.931Z,88.0516
2023-04-28T11:55:52.438Z,87.4419
2023-04-28T11:56:54.007Z,87.9966
2023-04-28T11:57:55.536Z,86.4063
2023-04-28T11:58:57.084Z,86.3378
2023-04-28T11:59:58.626Z,86.1172
2023-04-28T12:01:00.167Z,86.7488
2023-04-28T12:02:01.768Z,87.5888
2023-04-28T12:03:03.387Z,88.8027
2023-04-28T12:04:05.129Z,89.2293
2023-04-28T12:05:06.730Z,88.8125
2023-04-28T12:06:08.359Z,89.5629
2023-04-28T12:07:09.895Z,89.9880
2023-04-28T12:08:11.444Z,89.9074
2023-04-28T12:09:12.966Z,89.0144
2023-04-28T12:10:14.552Z,87.9423
2023-04-28T12:11:18.512Z,88.7004
2023-04-28T12:12:18.482Z,89.0419
2023-04-28T12:13:20.397Z,89.6375
2023-04-28T12:14:21.973Z,89.0231
2023-04-28T12:15:23.503Z,88.3875
2023-04-28T12:16:25.077Z,89.5245
2023-04-28T12:17:26.679Z,89.7056
2023-04-28T12:18:28.296Z,89.1962
2023-04-28T12:19:29.883Z,88.5439
2023-04-28T12:20:31.398Z,88.1782
2023-04-28T12:21:32.974Z,89.1862
2023-04-28T12:22:34.374Z,89.6587
2023-04-28T12:23:35.926Z,89.7026
2023-04-28T12:24:37.443Z,90.1048
2023-04-28T12:25:38.990Z,90.0619
2023-04-28T12:26:40.780Z,90.9650
2023-04-28T12:27:42.301Z,90.9287
2023-04-28T12:28:43.843Z,90.0486
2023-04-28T12:29:45.842Z,90.1595
2023-04-28T12:30:47.749Z,89.1243
2023-04-28T12:31:50.864Z,88.5571
2023-04-28T12:32:52.353Z,88.5237
2023-04-28T12:33:53.911Z,88.6805
2023-04-28T12:34:55.462Z,88.8446